Kota Kinabalu International Airport
WBKK : now visible

Airfield :











YOU CAN JOIN US ON...

 
LOGIN :

Register | Disclaimer

   EN    FR    IT 

 









Legend :    VFR   Marginal VFR   IFR   Intensive IFR   Very Intensive IFR
Visi :
Ceiling :
>= 8 km
>= 3000ft
5 to 8 km
1000 to 3000 ft
1500m to 5 km
500 to 1000 ft
800 to 1500m
200 to 500 ft
< 800m
< 200 ft
Symbols :   Thunderstorms  Fog  Heavy snow  Heavy precipitations  Wind > 20 kt






- Airport Elevation : 10 ft
- IATA code : BKI


WBKK - Kota Kinabalu International

CURRENT METAR :
  • 021300Z VRB02KT 9999 FEW014 27/26 Q1006 NOSIG

EXPIRED METARs :
  • 021230Z VRB02KT 9999 FEW014 27/26 Q1006 NOSIG
  • 021200Z 11004KT 070V140 9999 FEW014 27/26 Q1006 NOSIG
  • 021130Z 12003KT 9999 FEW014 28/26 Q1005 NOSIG
  • 021100Z 00000KT 9999 FEW014 28/25 Q1005 NOSIG
  • 021030Z 00000KT 9999 FEW014 28/25 Q1004 NOSIG

TAF TAF WBKK
Valid from the 02 at 12:00 until the 03 at 12:00 UTC


021100Z 0212/0312 11005KT 9999 FEW014
BECMG 0300/0302 32005KT
WBFC FIR / Asia



MET'MAP, your aeronautical weather chart ! - Copyright ORBIFLY December 2007 - Disclaimer

ORBIFLY MET'MAP TEAM :

Programming & Development : Alexandra Zaïnal
Original concept : Baudouin d'Aumeries
Technical & hardware support : Manuel Goepfert
Assistance : Marc-Olivier Méhu




SOURCES & CREDITS :

   NOAA       Earth
Advisory